Bruceville, Indiana
Current Conditions -  °F | °C
As of 4:53 AM on Saturday 20 Dec 2014 (Local Time) from KLWV Reporting Station
Haze Haze  
Wind Chill: 25°   Ceiling: 5500
Heat Index: 30°   Visibility: 6mi
Dew Point: 27°   Wind: 5mph
Humidity: 88%   Direction: 50°NE
Pressure: 30.29"   Gusts: NA
Location:  38.76°N, 87.42°W
Report Text: KLWV 201053Z AUTO 05004KT 6SM BR OVC055 M01/M03 A3029 RMK AO2 SLP260 T10111028
Loading
Personal Weather Stations






























Interactive Weather Map New forecast layout! Learn more

10-Day Weather Forecast

Advertisements
Track Severe Weather on mobile